createdAt,value
2022-11-28T00:05:46.918Z,97953.00
2022-11-28T00:09:41.404Z,97951.00
2022-11-28T00:12:16.444Z,97948.00
2022-11-28T00:18:59.904Z,97948.00
2022-11-28T00:25:59.326Z,97939.00
2022-11-28T00:32:45.390Z,97920.00
2022-11-28T00:39:39.214Z,97953.00
2022-11-28T00:46:28.498Z,97927.00
2022-11-28T00:53:15.719Z,97947.00
2022-11-28T01:00:02.546Z,97923.00
2022-11-28T01:06:52.454Z,97942.00
2022-11-28T01:09:43.861Z,97930.00
2022-11-28T01:12:18.941Z,97958.00
2022-11-28T01:19:11.196Z,97949.00
2022-11-28T01:26:02.021Z,97910.00
2022-11-28T01:32:49.735Z,97920.00
2022-11-28T01:39:41.722Z,97919.00
2022-11-28T01:46:36.320Z,97900.00
2022-11-28T01:53:23.041Z,97900.00
2022-11-28T02:00:15.591Z,97874.00
2022-11-28T02:03:42.338Z,97900.00
2022-11-28T02:10:34.236Z,97901.00
2022-11-28T02:14:14.352Z,97899.00
2022-11-28T02:21:28.959Z,97875.00
2022-11-28T02:29:14.210Z,97875.00
2022-11-28T02:32:44.695Z,97874.00
2022-11-28T02:39:37.437Z,97873.00
2022-11-28T02:46:31.044Z,97838.00
2022-11-28T02:53:26.858Z,97838.00
2022-11-28T03:04:40.600Z,97834.00
2022-11-28T03:12:33.470Z,97812.00
2022-11-28T03:19:24.159Z,97800.00
2022-11-28T03:26:18.701Z,97801.00
2022-11-28T03:33:17.262Z,97804.00
2022-11-28T03:40:09.479Z,97771.00
2022-11-28T03:47:02.294Z,97785.00
2022-11-28T03:53:52.745Z,97743.00
2022-11-28T04:05:02.866Z,97790.00
2022-11-28T04:16:10.774Z,97794.00
2022-11-28T04:23:16.650Z,97780.00
2022-11-28T04:30:09.770Z,97785.00
2022-11-28T04:37:06.823Z,97804.00
2022-11-28T04:44:06.685Z,97816.00
2022-11-28T04:51:03.030Z,97788.00
2022-11-28T04:57:57.618Z,97776.00
2022-11-28T05:05:02.920Z,97791.00
2022-11-28T05:16:03.560Z,97810.00
2022-11-28T05:23:07.542Z,97803.00
2022-11-28T05:29:55.136Z,97807.00
2022-11-28T05:36:41.439Z,97787.00
2022-11-28T05:47:36.382Z,97802.00
2022-11-28T05:54:17.103Z,97794.00
2022-11-28T06:05:41.444Z,97786.00
2022-11-28T06:12:28.355Z,97774.00
2022-11-28T06:19:08.739Z,97768.00
2022-11-28T06:25:57.135Z,97791.00
2022-11-28T06:32:44.705Z,97802.00
2022-11-28T06:39:29.359Z,97782.00
2022-11-28T06:46:21.186Z,97779.00
2022-11-28T06:53:08.655Z,97779.00
2022-11-28T07:00:01.532Z,97786.00
2022-11-28T07:03:39.118Z,97792.00
2022-11-28T07:14:43.358Z,97784.00
2022-11-28T07:21:52.056Z,97799.00
2022-11-28T07:32:52.261Z,97819.00
2022-11-28T07:43:54.612Z,97814.00
2022-11-28T07:50:44.349Z,97790.00
2022-11-28T08:04:47.749Z,97819.00
2022-11-28T08:15:58.367Z,97821.00
2022-11-28T08:22:45.651Z,97824.00
2022-11-28T08:29:26.383Z,97823.00
2022-11-28T08:36:18.077Z,97831.00
2022-11-28T08:43:05.027Z,97830.00
2022-11-28T08:46:00.735Z,97818.00
2022-11-28T08:52:50.056Z,97811.00
2022-11-28T08:59:37.282Z,97828.00
2022-11-28T09:06:25.561Z,97839.00
2022-11-28T09:09:14.607Z,97829.00
2022-11-28T09:16:47.660Z,97826.00
2022-11-28T09:23:39.892Z,97825.00
2022-11-28T09:30:29.394Z,97816.00
2022-11-28T09:37:18.147Z,97831.00
2022-11-28T09:44:04.915Z,97823.00
2022-11-28T09:54:53.064Z,97837.00
2022-11-28T10:06:05.970Z,97815.00
2022-11-28T10:09:44.462Z,97822.00
2022-11-28T10:17:46.761Z,97838.00
2022-11-28T10:24:42.401Z,97861.00
2022-11-28T10:28:18.813Z,97848.00
2022-11-28T10:31:00.883Z,97843.00
2022-11-28T10:33:44.485Z,97848.00
2022-11-28T10:36:26.427Z,97835.00
2022-11-28T10:48:04.040Z,97834.00
2022-11-28T10:55:43.482Z,97829.00
2022-11-28T10:59:16.256Z,97821.00
2022-11-28T11:06:12.656Z,97834.00
2022-11-28T11:09:43.257Z,97832.00
2022-11-28T11:12:32.099Z,97820.00
2022-11-28T11:19:32.360Z,97829.00
2022-11-28T11:31:19.810Z,97817.00
2022-11-28T11:38:19.539Z,97825.00
2022-11-28T11:53:31.108Z,97803.00
2022-11-28T12:09:44.148Z,97819.00
2022-11-28T12:26:02.505Z,97802.00
2022-11-28T12:42:02.132Z,97780.00
2022-11-28T12:49:21.807Z,97761.00
2022-11-28T12:56:24.988Z,97761.00
2022-11-28T13:03:28.700Z,97777.00
2022-11-28T13:10:22.501Z,97787.00
2022-11-28T13:14:11.808Z,97782.00
2022-11-28T13:21:16.269Z,97757.00
2022-11-28T13:24:08.169Z,97742.00
2022-11-28T13:26:59.133Z,97761.00
2022-11-28T13:38:53.101Z,97750.00
2022-11-28T13:45:49.103Z,97753.00
2022-11-28T13:49:40.959Z,97742.00
2022-11-28T13:56:29.598Z,97741.00
2022-11-28T14:12:42.839Z,97738.00
2022-11-28T14:15:30.757Z,97740.00
2022-11-28T14:23:35.761Z,97738.00
2022-11-28T14:34:45.500Z,97725.00
2022-11-28T14:41:33.416Z,97743.00
2022-11-28T14:52:40.331Z,97710.00
2022-11-28T14:55:23.374Z,97720.00
2022-11-28T14:58:36.436Z,97730.00
2022-11-28T15:06:41.030Z,97722.00
2022-11-28T15:09:50.162Z,97702.00
2022-11-28T15:12:34.922Z,97729.00
2022-11-28T15:15:31.072Z,97728.00
2022-11-28T15:18:37.032Z,97715.00
2022-11-28T15:22:25.054Z,97723.00
2022-11-28T15:29:23.317Z,97739.00
2022-11-28T15:41:01.407Z,97741.00
2022-11-28T15:44:19.358Z,97731.00
2022-11-28T15:51:12.483Z,97739.00
2022-11-28T15:54:27.972Z,97725.00
2022-11-28T16:01:26.543Z,97733.00
2022-11-28T16:04:43.524Z,97709.00
2022-11-28T16:08:30.733Z,97723.00
2022-11-28T16:15:29.630Z,97740.00
2022-11-28T16:22:51.355Z,97721.00
2022-11-28T16:29:48.412Z,97734.00
2022-11-28T16:36:38.315Z,97752.00
2022-11-28T16:43:36.795Z,97745.00
2022-11-28T16:50:27.657Z,97743.00
2022-11-28T16:57:22.083Z,97745.00
2022-11-28T17:04:06.795Z,97748.00
2022-11-28T17:10:58.784Z,97725.00
2022-11-28T17:14:17.932Z,97734.00
2022-11-28T17:21:13.731Z,97743.00
2022-11-28T17:28:03.483Z,97733.00
2022-11-28T17:35:04.037Z,97735.00
2022-11-28T17:41:56.239Z,97732.00
2022-11-28T17:48:41.384Z,97719.00
2022-11-28T17:55:29.658Z,97723.00
2022-11-28T18:02:36.970Z,97729.00
2022-11-28T18:06:47.732Z,97733.00
2022-11-28T18:09:55.078Z,97748.00
2022-11-28T18:20:57.048Z,97732.00
2022-11-28T18:27:43.041Z,97728.00
2022-11-28T18:34:23.485Z,97739.00
2022-11-28T18:41:12.057Z,97731.00
2022-11-28T18:48:05.945Z,97734.00
2022-11-28T18:54:57.164Z,97727.00
2022-11-28T19:02:01.476Z,97721.00
2022-11-28T19:08:48.997Z,97746.00
2022-11-28T19:15:56.097Z,97767.00
2022-11-28T19:22:55.646Z,97746.00
2022-11-28T19:29:51.697Z,97772.00
2022-11-28T19:36:49.273Z,97756.00
2022-11-28T19:43:33.156Z,97755.00
2022-11-28T19:50:35.010Z,97781.00
2022-11-28T20:02:48.585Z,97772.00
2022-11-28T20:09:39.602Z,97780.00
2022-11-28T20:16:27.766Z,97782.00
2022-11-28T20:23:18.599Z,97779.00
2022-11-28T20:30:08.001Z,97787.00
2022-11-28T20:36:56.291Z,97789.00
2022-11-28T20:43:40.986Z,97791.00
2022-11-28T20:54:41.271Z,97803.00
2022-11-28T21:01:40.020Z,97802.00
2022-11-28T21:08:31.882Z,97780.00
2022-11-28T21:19:57.117Z,97788.00
2022-11-28T21:27:07.359Z,97794.00
2022-11-28T21:38:04.383Z,97797.00
2022-11-28T21:44:51.445Z,97793.00
2022-11-28T21:51:38.260Z,97777.00
2022-11-28T21:58:26.316Z,97781.00
2022-11-28T22:05:16.322Z,97791.00
2022-11-28T22:16:48.046Z,97797.00
2022-11-28T22:20:50.213Z,97795.00
2022-11-28T22:27:43.871Z,97792.00
2022-11-28T22:38:40.580Z,97786.00
2022-11-28T22:45:45.620Z,97770.00
2022-11-28T22:52:43.013Z,97799.00
2022-11-28T22:59:43.683Z,97793.00
2022-11-28T23:06:37.241Z,97804.00
2022-11-28T23:09:44.511Z,97794.00
2022-11-28T23:12:19.584Z,97804.00
2022-11-28T23:19:19.566Z,97797.00
2022-11-28T23:26:15.226Z,97792.00
2022-11-28T23:33:04.843Z,97821.00
2022-11-28T23:39:58.571Z,97820.00
2022-11-28T23:46:52.226Z,97822.00
2022-11-28T23:53:40.003Z,97820.00
